Terminal Aerodrome Forecast
Issued by NWS

Home | Current Version | Previous Version | Text Only | Print | Product List | Glossary Off
Versions: 1 2 3 4 5 6 7 8 9 10 11 12 13 14 15 16 17 18 19 20 21 22

000
FTUS43 KBIS 222339
TAFDIK
TAF
KDIK 222339Z 2300/2324 33011KT P6SM BKN090
     FM230200 07009KT P6SM SCT060 BKN080
     FM230800 08012KT P6SM BKN015 OVC025
     FM231000 08012KT P6SM OVC008
     FM231500 09014G22KT P6SM OVC012
     FM232000 10015G25KT P6SM OVC025=

USA.gov is the U.S. government's official web portal to all federal, state and local government web resources and services.